createdAt,value
2023-04-09T00:02:27.713Z,40.47
2023-04-09T00:04:55.627Z,39.38
2023-04-09T00:07:23.572Z,41.72
2023-04-09T00:09:51.760Z,39.53
2023-04-09T00:12:19.744Z,40.05
2023-04-09T00:14:47.762Z,42.13
2023-04-09T00:17:15.787Z,42.13
2023-04-09T00:19:45.069Z,42.83
2023-04-09T00:22:12.974Z,43.80
2023-04-09T00:24:41.020Z,42.38
2023-04-09T00:27:08.992Z,43.08
2023-04-09T00:29:36.981Z,38.90
2023-04-09T00:32:05.002Z,46.97
2023-04-09T00:34:32.994Z,40.15
2023-04-09T00:37:02.395Z,40.88
2023-04-09T00:39:30.385Z,37.03
2023-04-09T00:41:59.520Z,37.63
2023-04-09T00:44:27.450Z,37.17
2023-04-09T00:46:56.160Z,40.00
2023-04-09T00:49:24.874Z,36.40
2023-04-09T00:51:53.332Z,36.13
2023-04-09T00:54:22.804Z,38.35
2023-04-09T00:56:50.942Z,38.55
2023-04-09T00:59:19.222Z,34.88
2023-04-09T01:01:47.254Z,35.47
2023-04-09T01:04:15.275Z,37.40
2023-04-09T01:06:49.529Z,34.88
2023-04-09T01:09:28.486Z,33.65
2023-04-09T01:12:04.363Z,35.78
2023-04-09T01:14:39.891Z,32.92
2023-04-09T01:17:13.519Z,35.88
2023-04-09T01:19:49.775Z,34.80
2023-04-09T01:22:32.209Z,29.35
2023-04-09T01:25:18.305Z,32.55
2023-04-09T01:27:59.212Z,36.88
2023-04-09T01:30:30.362Z,31.98
2023-04-09T01:32:59.135Z,31.38
2023-04-09T01:35:27.891Z,34.10
2023-04-09T01:37:57.148Z,35.95
2023-04-09T01:40:26.019Z,36.28
2023-04-09T01:42:55.601Z,38.78
2023-04-09T01:45:24.131Z,36.40
2023-04-09T01:47:55.228Z,37.58
2023-04-09T01:50:23.523Z,39.15
2023-04-09T01:52:51.860Z,37.55
2023-04-09T01:55:21.139Z,41.38
2023-04-09T01:57:49.159Z,37.53
2023-04-09T02:00:17.393Z,38.00
2023-04-09T02:02:52.229Z,41.10
2023-04-09T02:05:23.346Z,41.10
2023-04-09T02:07:57.034Z,42.67
2023-04-09T02:10:28.315Z,43.38
2023-04-09T02:12:57.609Z,46.75
2023-04-09T02:15:26.370Z,42.97
2023-04-09T02:17:54.421Z,45.85
2023-04-09T02:20:24.675Z,45.03
2023-04-09T02:22:52.651Z,43.72
2023-04-09T02:25:20.865Z,46.97
2023-04-09T02:27:48.877Z,49.97
2023-04-09T02:30:16.855Z,50.30
2023-04-09T02:32:44.827Z,50.53
2023-04-09T02:35:12.899Z,52.13
2023-04-09T02:37:42.177Z,43.92
2023-04-09T02:40:11.416Z,47.35
2023-04-09T02:42:39.344Z,46.38
2023-04-09T02:45:08.487Z,46.33
2023-04-09T02:47:36.465Z,43.97
2023-04-09T02:50:04.659Z,47.25
2023-04-09T02:52:32.705Z,45.47
2023-04-09T02:55:02.082Z,45.25
2023-04-09T02:57:30.558Z,48.17
2023-04-09T02:59:58.520Z,47.08
2023-04-09T03:02:26.596Z,46.75
2023-04-09T03:04:54.653Z,48.35
2023-04-09T03:07:23.569Z,46.78
2023-04-09T03:09:51.489Z,46.22
2023-04-09T03:12:20.800Z,54.40
2023-04-09T03:14:48.787Z,53.35
2023-04-09T03:17:16.821Z,53.15
2023-04-09T03:19:44.776Z,58.67
2023-04-09T03:22:12.762Z,55.13
2023-04-09T03:24:40.733Z,54.45
2023-04-09T03:27:08.693Z,55.10
2023-04-09T03:29:38.065Z,53.65
2023-04-09T03:32:06.275Z,59.33
2023-04-09T03:34:34.202Z,58.63
2023-04-09T03:37:02.187Z,56.72
2023-04-09T03:39:30.916Z,57.70
2023-04-09T03:41:59.201Z,59.70
2023-04-09T03:44:27.208Z,59.85
2023-04-09T03:46:56.723Z,58.15
2023-04-09T03:49:24.833Z,61.10
2023-04-09T03:51:52.851Z,60.40
2023-04-09T03:54:20.870Z,55.55
2023-04-09T03:56:48.899Z,61.67
2023-04-09T03:59:17.080Z,62.08
2023-04-09T04:01:45.152Z,65.75
2023-04-09T04:04:14.601Z,58.30
2023-04-09T04:06:42.685Z,63.08
2023-04-09T04:09:10.617Z,62.67
2023-04-09T04:11:38.611Z,60.60
2023-04-09T04:14:06.601Z,62.58
2023-04-09T04:16:34.610Z,57.22
2023-04-09T04:19:02.576Z,57.63
2023-04-09T04:21:32.051Z,52.92
2023-04-09T04:24:00.070Z,63.22
2023-04-09T04:26:28.009Z,62.97
2023-04-09T04:28:56.027Z,50.13
2023-04-09T04:31:24.041Z,49.97
2023-04-09T04:33:52.088Z,51.50
2023-04-09T04:36:20.066Z,54.65
2023-04-09T04:38:49.457Z,53.95
2023-04-09T04:41:17.460Z,53.00
2023-04-09T04:43:45.469Z,55.58
2023-04-09T04:46:13.491Z,51.90
2023-04-09T04:48:41.551Z,52.75
2023-04-09T04:51:09.525Z,56.08
2023-04-09T04:53:37.491Z,53.72
2023-04-09T04:56:07.160Z,55.13
2023-04-09T04:58:35.235Z,51.47
2023-04-09T05:01:03.232Z,51.22
2023-04-09T05:03:31.263Z,52.47
2023-04-09T05:05:59.234Z,54.30
2023-04-09T05:08:27.192Z,62.85
2023-04-09T05:10:56.675Z,50.42
2023-04-09T05:13:26.321Z,48.88
2023-04-09T05:15:54.256Z,52.30
2023-04-09T05:18:22.208Z,46.45
2023-04-09T05:20:50.170Z,51.28
2023-04-09T05:23:18.170Z,49.00
2023-04-09T05:25:46.180Z,48.28
2023-04-09T05:28:14.130Z,49.35
2023-04-09T05:30:46.949Z,51.83
2023-04-09T05:33:14.891Z,51.20
2023-04-09T05:35:42.965Z,53.97
2023-04-09T05:38:11.118Z,50.67
2023-04-09T05:40:39.114Z,56.25
2023-04-09T05:43:07.156Z,50.25
2023-04-09T05:45:35.177Z,51.97
2023-04-09T05:48:04.679Z,56.55
2023-04-09T05:50:38.200Z,48.92
2023-04-09T05:55:43.142Z,52.28
2023-04-09T05:58:11.114Z,49.95
2023-04-09T06:00:39.076Z,49.17
2023-04-09T06:03:10.763Z,50.15
2023-04-09T06:05:38.852Z,52.47
2023-04-09T06:08:06.951Z,51.05
2023-04-09T06:10:34.999Z,50.65
2023-04-09T06:13:03.040Z,54.10
2023-04-09T06:15:31.418Z,53.65
2023-04-09T06:17:59.534Z,52.88
2023-04-09T06:20:28.990Z,49.30
2023-04-09T06:22:57.001Z,47.92
2023-04-09T06:25:25.106Z,53.35
2023-04-09T06:27:53.227Z,54.90
2023-04-09T06:30:21.278Z,57.95
2023-04-09T06:32:54.357Z,53.15
2023-04-09T06:35:22.786Z,52.50
2023-04-09T06:37:52.077Z,53.38
2023-04-09T06:40:22.912Z,51.90
2023-04-09T06:42:51.431Z,48.08
2023-04-09T06:45:19.448Z,51.05
2023-04-09T06:47:47.465Z,47.70
2023-04-09T06:50:15.522Z,50.00
2023-04-09T06:52:43.564Z,46.92
2023-04-09T06:55:12.998Z,51.58
2023-04-09T06:57:41.019Z,47.55
2023-04-09T07:00:10.719Z,47.47
2023-04-09T07:02:46.105Z,57.85
2023-04-09T07:05:14.289Z,48.10
2023-04-09T07:07:42.288Z,49.78
2023-04-09T07:10:12.159Z,48.67
2023-04-09T07:12:40.195Z,50.65
2023-04-09T07:15:09.294Z,51.63
2023-04-09T07:17:37.407Z,50.45
2023-04-09T07:20:05.977Z,51.10
2023-04-09T07:22:33.999Z,57.90
2023-04-09T07:25:02.086Z,50.45
2023-04-09T07:27:31.626Z,49.45
2023-04-09T07:30:00.480Z,50.05
2023-04-09T07:32:29.253Z,48.72
2023-04-09T07:34:59.384Z,50.78
2023-04-09T07:37:28.110Z,55.42
2023-04-09T07:39:56.625Z,59.40
2023-04-09T07:42:24.888Z,56.97
2023-04-09T07:44:54.570Z,63.53
2023-04-09T07:47:23.873Z,56.10
2023-04-09T07:49:52.073Z,62.22
2023-04-09T07:52:20.488Z,64.35
2023-04-09T07:54:48.468Z,66.60
2023-04-09T07:57:16.458Z,63.38
2023-04-09T07:59:44.428Z,61.97
2023-04-09T08:02:15.308Z,69.80
2023-04-09T08:04:43.809Z,66.05
2023-04-09T08:07:12.461Z,74.63
2023-04-09T08:09:40.463Z,64.15
2023-04-09T08:12:08.550Z,69.85
2023-04-09T08:14:36.774Z,69.45
2023-04-09T08:17:05.406Z,71.93
2023-04-09T08:19:34.801Z,76.63
2023-04-09T08:22:03.192Z,71.30
2023-04-09T08:24:31.329Z,74.68
2023-04-09T08:26:59.421Z,67.68
2023-04-09T08:29:28.327Z,74.50
2023-04-09T08:31:56.389Z,74.50
2023-04-09T08:34:24.431Z,70.53
2023-04-09T08:36:53.828Z,70.13
2023-04-09T08:39:21.850Z,76.25
2023-04-09T08:41:50.928Z,75.53
2023-04-09T08:44:19.457Z,76.15
2023-04-09T08:46:47.710Z,69.00
2023-04-09T08:49:15.723Z,71.70
2023-04-09T08:51:47.297Z,72.85
2023-04-09T08:54:19.951Z,74.27
2023-04-09T08:56:48.159Z,74.45
2023-04-09T08:59:18.486Z,73.10
2023-04-09T09:01:49.456Z,73.85
2023-04-09T09:04:17.492Z,72.82
2023-04-09T09:06:45.834Z,72.47
2023-04-09T09:09:14.773Z,71.70
2023-04-09T09:11:45.526Z,72.65
2023-04-09T09:14:14.929Z,81.65
2023-04-09T09:16:44.629Z,73.72
2023-04-09T09:19:30.193Z,71.22
2023-04-09T09:21:58.715Z,69.88
2023-04-09T09:24:27.165Z,71.35
2023-04-09T09:26:57.423Z,69.88
2023-04-09T09:29:25.946Z,67.82
2023-04-09T09:31:55.721Z,69.25
2023-04-09T09:34:25.350Z,68.15
2023-04-09T09:36:53.445Z,67.97
2023-04-09T09:39:22.338Z,66.15
2023-04-09T09:42:09.422Z,64.95
2023-04-09T09:44:37.375Z,65.88
2023-04-09T09:47:05.953Z,65.13
2023-04-09T09:49:34.006Z,65.13
2023-04-09T09:52:03.951Z,63.28
2023-04-09T09:54:41.073Z,66.35
2023-04-09T09:57:13.664Z,66.07
2023-04-09T09:59:48.056Z,65.70
2023-04-09T10:02:21.004Z,67.97
2023-04-09T10:04:51.030Z,67.43
2023-04-09T10:07:20.509Z,66.97
2023-04-09T10:09:51.602Z,67.28
2023-04-09T10:12:24.652Z,66.13
2023-04-09T10:14:53.332Z,72.22
2023-04-09T10:17:21.960Z,70.45
2023-04-09T10:19:57.911Z,68.93
2023-04-09T10:22:30.585Z,73.18
2023-04-09T10:24:59.899Z,72.30
2023-04-09T10:27:29.295Z,70.22
2023-04-09T10:29:57.255Z,71.05
2023-04-09T10:32:28.051Z,69.90
2023-04-09T10:34:59.334Z,74.10
2023-04-09T10:37:28.915Z,73.80
2023-04-09T10:39:57.849Z,72.03
2023-04-09T10:42:34.169Z,75.63
2023-04-09T10:45:10.278Z,66.10
2023-04-09T10:47:39.834Z,73.90
2023-04-09T10:50:21.315Z,70.38
2023-04-09T10:52:53.921Z,69.10
2023-04-09T10:55:33.801Z,67.55
2023-04-09T10:58:04.448Z,67.18
2023-04-09T11:00:32.472Z,72.65
2023-04-09T11:03:24.976Z,69.57
2023-04-09T11:06:02.635Z,63.50
2023-04-09T11:08:32.075Z,69.40
2023-04-09T11:11:01.840Z,67.35
2023-04-09T11:13:32.337Z,59.05
2023-04-09T11:16:01.479Z,60.85
2023-04-09T11:18:30.964Z,59.45
2023-04-09T11:20:59.902Z,62.63
2023-04-09T11:23:28.637Z,57.33
2023-04-09T11:25:56.835Z,60.08
2023-04-09T11:28:25.318Z,62.42
2023-04-09T11:30:54.878Z,63.17
2023-04-09T11:33:22.967Z,58.60
2023-04-09T11:35:51.972Z,57.25
2023-04-09T11:38:19.954Z,58.08
2023-04-09T11:40:49.576Z,63.90
2023-04-09T11:43:20.705Z,56.63
2023-04-09T11:45:49.206Z,56.17
2023-04-09T11:48:19.224Z,55.08
2023-04-09T11:50:48.552Z,53.72
2023-04-09T11:53:21.893Z,54.05
2023-04-09T11:55:52.603Z,56.92
2023-04-09T11:58:23.964Z,57.67
2023-04-09T12:00:54.357Z,55.40
2023-04-09T12:03:29.370Z,52.28
2023-04-09T12:05:58.644Z,51.72
2023-04-09T12:08:28.494Z,49.85
2023-04-09T12:10:56.465Z,47.00
2023-04-09T12:13:34.240Z,50.75
2023-04-09T12:16:02.725Z,48.22
2023-04-09T12:18:32.143Z,51.05
2023-04-09T12:21:01.445Z,45.40
2023-04-09T12:23:31.383Z,43.20
2023-04-09T12:26:01.328Z,43.65
2023-04-09T12:28:30.005Z,43.22
2023-04-09T12:30:59.502Z,44.88
2023-04-09T12:33:27.705Z,44.75
2023-04-09T12:35:58.374Z,42.38
2023-04-09T12:38:26.758Z,43.72
2023-04-09T12:40:54.812Z,42.45
2023-04-09T12:43:22.858Z,41.45
2023-04-09T12:45:51.486Z,42.15
2023-04-09T12:48:19.432Z,43.10
2023-04-09T12:50:47.677Z,44.67
2023-04-09T12:53:17.034Z,45.00
2023-04-09T12:55:44.999Z,41.05
2023-04-09T12:58:12.949Z,38.83
2023-04-09T13:00:41.043Z,40.85
2023-04-09T13:03:09.117Z,39.17
2023-04-09T13:05:37.196Z,38.65
2023-04-09T13:08:05.510Z,39.08
2023-04-09T13:10:35.114Z,38.70
2023-04-09T13:13:03.470Z,37.22
2023-04-09T13:15:31.520Z,37.60
2023-04-09T13:17:59.557Z,36.42
2023-04-09T13:20:27.949Z,36.53
2023-04-09T13:22:55.960Z,34.72
2023-04-09T13:25:24.190Z,36.65
2023-04-09T13:27:53.568Z,37.85
2023-04-09T13:30:22.843Z,36.15
2023-04-09T13:32:50.867Z,34.05
2023-04-09T13:35:19.129Z,39.05
2023-04-09T13:37:47.274Z,35.17
2023-04-09T13:40:16.769Z,36.30
2023-04-09T13:42:44.702Z,34.78
2023-04-09T13:45:14.673Z,34.67
2023-04-09T13:47:43.155Z,33.10
2023-04-09T13:50:14.085Z,32.38
2023-04-09T13:52:42.128Z,32.17
2023-04-09T13:55:11.489Z,32.95
2023-04-09T13:57:39.458Z,33.58
2023-04-09T14:00:08.806Z,30.98
2023-04-09T14:02:38.274Z,29.27
2023-04-09T14:05:06.947Z,29.58
2023-04-09T14:07:34.986Z,27.92
2023-04-09T14:10:03.057Z,29.92
2023-04-09T14:12:31.013Z,30.42
2023-04-09T14:15:01.236Z,27.50
2023-04-09T14:17:29.334Z,27.55
2023-04-09T14:19:59.040Z,25.80
2023-04-09T14:22:29.687Z,25.25
2023-04-09T14:24:57.721Z,25.73
2023-04-09T14:27:25.904Z,25.88
2023-04-09T14:29:53.957Z,27.55
2023-04-09T14:32:21.918Z,26.83
2023-04-09T14:34:49.973Z,28.20
2023-04-09T14:37:19.304Z,26.15
2023-04-09T14:39:47.272Z,25.23
2023-04-09T14:42:15.359Z,24.60
2023-04-09T14:44:43.377Z,23.90
2023-04-09T14:47:11.650Z,24.30
2023-04-09T14:49:39.927Z,20.25
2023-04-09T14:52:07.971Z,22.63
2023-04-09T14:54:37.879Z,19.80
2023-04-09T14:57:06.899Z,17.90
2023-04-09T14:59:35.120Z,18.35
2023-04-09T15:02:03.393Z,18.85
2023-04-09T15:04:31.922Z,18.98
2023-04-09T15:07:00.114Z,17.10
2023-04-09T15:09:28.060Z,18.02
2023-04-09T15:11:57.923Z,17.65
2023-04-09T15:14:29.031Z,19.15
2023-04-09T15:16:57.022Z,22.27
2023-04-09T15:19:25.288Z,20.58
2023-04-09T15:21:53.257Z,17.65
2023-04-09T15:24:21.789Z,16.67
2023-04-09T15:26:49.857Z,16.73
2023-04-09T15:29:19.363Z,16.48
2023-04-09T15:31:48.878Z,16.10
2023-04-09T15:34:17.005Z,16.70
2023-04-09T15:36:46.037Z,17.17
2023-04-09T15:39:13.966Z,16.67
2023-04-09T15:41:41.972Z,17.40
2023-04-09T15:44:10.009Z,16.02
2023-04-09T15:46:40.422Z,17.00
2023-04-09T15:49:08.473Z,16.75
2023-04-09T15:51:36.450Z,16.85
2023-04-09T15:54:04.607Z,16.60
2023-04-09T15:56:33.013Z,16.45
2023-04-09T15:59:02.188Z,17.70
2023-04-09T16:01:30.941Z,17.25
2023-04-09T16:04:00.374Z,15.15
2023-04-09T16:06:28.459Z,15.18
2023-04-09T16:08:56.569Z,16.08
2023-04-09T16:11:24.556Z,15.25
2023-04-09T16:13:52.556Z,14.98
2023-04-09T16:16:20.961Z,15.57
2023-04-09T16:18:49.038Z,15.18
2023-04-09T16:21:18.633Z,15.43
2023-04-09T16:23:46.665Z,14.70
2023-04-09T16:26:14.664Z,15.30
2023-04-09T16:28:42.600Z,15.30
2023-04-09T16:31:10.663Z,15.15
2023-04-09T16:33:38.691Z,14.52
2023-04-09T16:36:07.364Z,14.63
2023-04-09T16:38:36.797Z,16.48
2023-04-09T16:41:04.804Z,13.95
2023-04-09T16:43:32.788Z,14.60
2023-04-09T16:46:00.831Z,17.08
2023-04-09T16:48:28.842Z,15.18
2023-04-09T16:50:56.793Z,15.45
2023-04-09T16:53:24.770Z,15.63
2023-04-09T16:55:54.118Z,15.85
2023-04-09T16:58:22.133Z,15.15
2023-04-09T17:00:51.975Z,15.23
2023-04-09T17:03:20.373Z,15.20
2023-04-09T17:05:49.513Z,16.60
2023-04-09T17:08:17.912Z,15.77
2023-04-09T17:10:46.167Z,16.52
2023-04-09T17:13:15.806Z,16.35
2023-04-09T17:15:43.755Z,15.25
2023-04-09T17:18:11.890Z,16.23
2023-04-09T17:20:39.845Z,16.42
2023-04-09T17:23:08.685Z,17.38
2023-04-09T17:25:36.980Z,14.82
2023-04-09T17:28:06.001Z,15.13
2023-04-09T17:30:36.194Z,14.45
2023-04-09T17:33:04.298Z,15.23
2023-04-09T17:35:32.715Z,15.55
2023-04-09T17:38:01.223Z,16.33
2023-04-09T17:40:29.365Z,16.13
2023-04-09T17:42:57.329Z,15.75
2023-04-09T17:45:25.404Z,15.60
2023-04-09T17:47:55.452Z,16.65
2023-04-09T17:50:23.518Z,15.27
2023-04-09T17:52:51.506Z,15.88
2023-04-09T17:55:19.544Z,16.85
2023-04-09T17:57:47.636Z,15.65
2023-04-09T18:00:16.984Z,16.50
2023-04-09T18:02:46.015Z,16.63
2023-04-09T18:05:15.751Z,16.67
2023-04-09T18:07:43.937Z,17.48
2023-04-09T18:10:12.233Z,15.82
2023-04-09T18:12:40.283Z,17.38
2023-04-09T18:15:09.186Z,15.80
2023-04-09T18:17:37.228Z,15.90
2023-04-09T18:20:06.524Z,15.93
2023-04-09T18:22:36.491Z,15.75
2023-04-09T18:25:04.612Z,17.42
2023-04-09T18:27:32.590Z,18.02
2023-04-09T18:30:00.632Z,15.15
2023-04-09T18:32:28.754Z,17.38
2023-04-09T18:34:57.968Z,17.75
2023-04-09T18:37:26.579Z,18.92
2023-04-09T18:39:56.560Z,16.25
2023-04-09T18:42:24.534Z,15.40
2023-04-09T18:44:52.553Z,16.13
2023-04-09T18:47:20.788Z,17.08
2023-04-09T18:49:48.750Z,17.67
2023-04-09T18:52:16.687Z,15.52
2023-04-09T18:54:44.698Z,17.35
2023-04-09T18:57:14.027Z,18.73
2023-04-09T18:59:42.192Z,15.75
2023-04-09T19:02:10.252Z,17.33
2023-04-09T19:04:40.111Z,17.55
2023-04-09T19:07:08.766Z,16.80
2023-04-09T19:09:37.381Z,17.75
2023-04-09T19:12:05.794Z,17.10
2023-04-09T19:14:36.416Z,15.65
2023-04-09T19:17:04.422Z,17.38
2023-04-09T19:19:32.569Z,18.23
2023-04-09T19:22:00.649Z,17.65
2023-04-09T19:24:28.613Z,16.77
2023-04-09T19:26:56.636Z,15.55
2023-04-09T19:29:24.594Z,16.42
2023-04-09T19:31:54.066Z,17.35
2023-04-09T19:34:22.159Z,17.35
2023-04-09T19:36:50.156Z,16.48
2023-04-09T19:39:18.823Z,18.23
2023-04-09T19:41:46.792Z,15.60
2023-04-09T19:44:14.758Z,17.60
2023-04-09T19:46:42.810Z,18.25
2023-04-09T19:49:12.543Z,16.23
2023-04-09T19:51:40.468Z,18.92
2023-04-09T19:54:10.653Z,17.63
2023-04-09T19:56:39.068Z,16.17
2023-04-09T19:59:07.332Z,17.98
2023-04-09T20:01:35.405Z,16.73
2023-04-09T20:04:03.506Z,16.52
2023-04-09T20:06:33.461Z,17.85
2023-04-09T20:09:01.863Z,17.13
2023-04-09T20:11:29.800Z,15.02
2023-04-09T20:13:58.525Z,15.60
2023-04-09T20:16:26.618Z,18.30
2023-04-09T20:18:54.801Z,15.32
2023-04-09T20:21:23.154Z,17.48
2023-04-09T20:23:52.472Z,20.77
2023-04-09T20:26:20.480Z,18.88
2023-04-09T20:28:48.716Z,17.38
2023-04-09T20:31:16.972Z,15.60
2023-04-09T20:33:44.963Z,18.17
2023-04-09T20:36:16.741Z,17.50
2023-04-09T20:38:45.039Z,16.85
2023-04-09T20:41:14.394Z,16.83
2023-04-09T20:43:42.388Z,15.95
2023-04-09T20:46:10.544Z,16.60
2023-04-09T20:48:38.682Z,17.80
2023-04-09T20:51:11.025Z,17.15
2023-04-09T20:56:09.032Z,17.42
2023-04-09T20:58:38.933Z,16.92
2023-04-09T21:01:09.499Z,16.00
2023-04-09T21:03:38.285Z,17.13
2023-04-09T21:06:07.283Z,17.02
2023-04-09T21:08:36.334Z,16.88
2023-04-09T21:11:04.378Z,17.52
2023-04-09T21:13:40.345Z,19.33
2023-04-09T21:16:20.411Z,18.33
2023-04-09T21:18:48.906Z,15.32
2023-04-09T21:21:16.890Z,18.35
2023-04-09T21:23:44.793Z,17.35
2023-04-09T21:26:13.248Z,19.90
2023-04-09T21:28:41.224Z,16.15
2023-04-09T21:31:10.931Z,17.55
2023-04-09T21:33:43.333Z,18.50
2023-04-09T21:36:11.331Z,17.20
2023-04-09T21:38:39.551Z,16.52
2023-04-09T21:41:08.368Z,16.25
2023-04-09T21:43:38.260Z,18.92
2023-04-09T21:46:06.597Z,15.10
2023-04-09T21:48:34.636Z,17.33
2023-04-09T21:51:04.028Z,16.98
2023-04-09T21:53:32.599Z,19.67
2023-04-09T21:56:01.828Z,15.57
2023-04-09T21:58:32.512Z,20.33
2023-04-09T22:01:00.729Z,15.80
2023-04-09T22:03:28.884Z,16.88
2023-04-09T22:05:57.097Z,17.25
2023-04-09T22:08:26.459Z,21.52
2023-04-09T22:10:54.416Z,17.45
2023-04-09T22:13:22.537Z,16.75
2023-04-09T22:15:50.667Z,15.95
2023-04-09T22:18:18.656Z,17.83
2023-04-09T22:20:47.155Z,16.40
2023-04-09T22:23:15.193Z,16.63
2023-04-09T22:25:44.672Z,14.70
2023-04-09T22:28:12.689Z,16.20
2023-04-09T22:30:41.008Z,16.45
2023-04-09T22:33:09.044Z,18.20
2023-04-09T22:35:37.058Z,17.27
2023-04-09T22:38:05.399Z,16.30
2023-04-09T22:40:33.332Z,14.48
2023-04-09T22:43:02.690Z,16.52
2023-04-09T22:45:32.201Z,15.07
2023-04-09T22:48:00.373Z,16.33
2023-04-09T22:50:28.902Z,14.50
2023-04-09T22:52:57.008Z,15.10
2023-04-09T22:55:24.994Z,13.77
2023-04-09T22:57:53.012Z,13.82
2023-04-09T23:00:22.564Z,15.30
2023-04-09T23:02:50.949Z,14.38
2023-04-09T23:05:19.178Z,14.50
2023-04-09T23:07:47.130Z,14.57
2023-04-09T23:10:17.350Z,15.40
2023-04-09T23:12:45.337Z,14.07
2023-04-09T23:15:13.419Z,16.25
2023-04-09T23:17:42.960Z,14.88
2023-04-09T23:20:14.737Z,14.95
2023-04-09T23:22:42.970Z,15.15
2023-04-09T23:25:11.292Z,14.57
2023-04-09T23:27:39.316Z,15.23
2023-04-09T23:30:08.856Z,13.35
2023-04-09T23:32:37.006Z,13.40
2023-04-09T23:35:07.292Z,13.75
2023-04-09T23:37:35.393Z,13.18
2023-04-09T23:40:03.817Z,13.55
2023-04-09T23:42:33.836Z,13.15
2023-04-09T23:45:04.076Z,13.35
2023-04-09T23:47:33.462Z,12.95
2023-04-09T23:50:04.700Z,13.75
2023-04-09T23:52:35.491Z,14.50
2023-04-09T23:55:03.643Z,13.25
2023-04-09T23:57:31.712Z,14.77
2023-04-09T23:59:59.685Z,12.68
